MED weather

Prince Mohammad Bin Abdulaziz Airport
Medina, Al Madinah Region, Saudi Arabia

Public forecast

Using degrees Celsius for public forecast. Weather courtesy of forecast.io.

Current aviation weather report (METAR) for Prince Mohammad Bin Abdulaziz Airport

Retrieved 2019/12/11 05:00 UTC (43 minutes ago):

OEMA 110500Z 00000KT CAVOK 16/M03 Q1020 NOSIG

Aviation forecast (TAF) for Prince Mohammad Bin Abdulaziz Airport

Retrieved 2019-12-11 00:06 UTC (6 hours ago):

TAF OEMA 102300Z 1100/1206 08006G16KT 6000 NSC